Time;durP1;ratioP1;P1;durP2;ratioP2;P2;SDS_P1;SDS_P2;PMS_P1;PMS_P2;Temp;Humidity;BMP_temperature;BMP_pressure;BME280_temperature;BME280_humidity;BME280_pressure;Samples;Min_cycle;Max_cycle;Signal;HPM_P1;HPM_P2
2021/12/21 00:01:47;;;;;;;23.45;9.00;;;;;;;-2.33;100.00;102183.09;7398413;19;20182;-45
2021/12/21 00:04:16;;;;;;;20.42;8.43;;;;;;;-2.34;100.00;102181.28;7399556;19;20190;-46
2021/12/21 00:06:46;;;;;;;18.27;9.23;;;;;;;-2.24;100.00;102182.34;7396885;19;20186;-44
2021/12/21 00:09:16;;;;;;;15.70;8.35;;;;;;;-2.14;100.00;102169.13;7398575;19;20186;-46
2021/12/21 00:11:48;;;;;;;24.13;8.73;;;;;;;-2.15;100.00;102173.31;7397763;19;20174;-45
2021/12/21 00:14:27;;;;;;;18.38;8.52;;;;;;;-2.26;100.00;102181.28;7399508;19;20384;-50
2021/12/21 00:20:04;;;;;;;21.92;7.80;;;;;;;-2.43;100.00;102174.25;7391708;19;20213;-46
2021/12/21 00:25:19;;;;;;;18.52;7.80;;;;;;;-2.28;100.00;102178.56;7389491;19;20591;-46
2021/12/21 00:27:51;;;;;;;14.68;8.13;;;;;;;-2.34;100.00;102176.22;7402033;19;20165;-45
2021/12/21 00:30:23;;;;;;;15.05;8.18;;;;;;;-2.35;100.00;102179.44;7398791;19;20192;-43
2021/12/21 00:32:52;;;;;;;13.48;7.43;;;;;;;-2.50;100.00;102175.16;7406102;19;20212;-45
2021/12/21 00:35:22;;;;;;;15.40;8.07;;;;;;;-2.61;100.00;102177.31;7398337;19;20217;-44
2021/12/21 00:37:52;;;;;;;15.73;7.60;;;;;;;-2.53;100.00;102178.22;7403819;19;20159;-44
2021/12/21 00:40:21;;;;;;;15.13;7.13;;;;;;;-2.52;100.00;102174.97;7398804;19;20573;-43
2021/12/21 00:42:51;;;;;;;16.67;7.30;;;;;;;-2.56;100.00;102182.94;7405185;19;20119;-45
2021/12/21 00:45:23;;;;;;;15.88;7.75;;;;;;;-2.67;100.00;102179.13;7398566;19;20198;-44
2021/12/21 00:47:52;;;;;;;18.02;8.05;;;;;;;-2.66;100.00;102186.00;7403461;19;20159;-47
2021/12/21 00:50:23;;;;;;;13.10;7.82;;;;;;;-2.58;100.00;102184.34;7398364;19;20632;-43
2021/12/21 00:52:54;;;;;;;16.90;8.25;;;;;;;-2.55;100.00;102181.28;7404758;19;20126;-42
2021/12/21 00:55:24;;;;;;;12.68;7.70;;;;;;;-2.46;100.00;102180.75;7398387;19;20250;-43
2021/12/21 00:57:54;;;;;;;16.90;8.70;;;;;;;-2.55;100.00;102182.19;7403618;19;20159;-45
2021/12/21 01:00:26;;;;;;;19.77;9.20;;;;;;;-2.57;100.00;102183.63;7398275;19;20254;-44
2021/12/21 01:02:57;;;;;;;18.63;8.25;;;;;;;-2.60;100.00;102180.75;7404606;19;20130;-44
2021/12/21 01:05:33;;;;;;;16.70;8.88;;;;;;;-2.74;100.00;102181.66;7397268;19;20182;-45
2021/12/21 01:08:05;;;;;;;22.08;8.65;;;;;;;-2.87;100.00;102181.84;7402674;19;20416;-44
2021/12/21 01:11:00;;;;;;;17.00;7.57;;;;;;;-2.89;100.00;102181.66;7395958;19;20580;-43
2021/12/21 01:13:38;;;;;;;17.42;9.00;;;;;;;-2.72;100.00;102172.63;7405022;19;20137;-47
2021/12/21 01:19:13;;;;;;;14.80;8.07;;;;;;;-2.60;100.00;102166.47;7404051;19;20159;-45
2021/12/21 01:21:54;;;;;;;16.23;8.52;;;;;;;-2.66;100.00;102167.38;7399876;19;20233;-44
2021/12/21 01:27:28;;;;;;;12.05;7.68;;;;;;;-2.64;100.00;102173.53;7402444;19;20226;-46
2021/12/21 01:30:06;;;;;;;16.65;8.15;;;;;;;-2.51;100.00;102164.13;7396885;19;20196;-45
2021/12/21 01:32:55;;;;;;;19.33;8.70;;;;;;;-2.56;100.00;102161.78;7403562;19;20422;-46
2021/12/21 01:35:30;;;;;;;20.52;7.68;;;;;;;-2.65;100.00;102161.59;7396423;19;20263;-48
2021/12/21 01:38:05;;;;;;;14.23;8.23;;;;;;;-2.82;100.00;102152.94;7401079;19;20161;-42
2021/12/21 01:40:47;;;;;;;19.95;8.90;;;;;;;-2.91;100.00;102152.78;7397022;19;20606;-46
2021/12/21 01:43:25;;;;;;;18.63;8.55;;;;;;;-2.93;100.00;102159.25;7403406;19;20408;-45
2021/12/21 01:51:22;;;;;;;20.38;8.27;;;;;;;-3.03;100.00;102151.31;7395376;19;20190;-44
2021/12/21 01:53:51;;;;;;;72.50;26.23;;;;;;;-2.94;100.00;102152.41;7403511;19;20130;-46
2021/12/21 01:56:22;;;;;;;23.85;8.85;;;;;;;-2.94;100.00;102144.81;7395601;19;20196;-45
2021/12/21 01:58:51;;;;;;;17.40;8.95;;;;;;;-3.04;100.00;102150.41;7402906;19;20130;-45
2021/12/21 02:01:23;;;;;;;20.00;9.45;;;;;;;-3.00;100.00;102146.63;7396427;19;20187;-49
2021/12/21 02:03:55;;;;;;;15.38;9.20;;;;;;;-2.92;100.00;102147.53;7402753;19;20562;-48
2021/12/21 02:06:27;;;;;;;16.80;9.43;;;;;;;-2.88;100.00;102144.63;7395300;19;20619;-44
2021/12/21 02:09:19;;;;;;;20.13;9.98;;;;;;;-2.90;100.00;102141.94;7402120;19;20130;-43
2021/12/21 02:11:49;;;;;;;18.27;9.68;;;;;;;-3.01;100.00;102140.69;7399727;19;20182;-44
2021/12/21 02:14:18;;;;;;;20.48;10.50;;;;;;;-2.97;100.00;102141.94;7396205;19;20123;-46
2021/12/21 02:16:58;;;;;;;18.17;9.18;;;;;;;-3.03;100.00;102133.66;7400446;19;20210;-49
2021/12/21 02:19:35;;;;;;;20.85;10.45;;;;;;;-3.05;100.00;102132.53;7396667;19;20416;-47
2021/12/21 02:22:23;;;;;;;17.33;9.05;;;;;;;-3.05;100.00;102135.06;7404363;19;20147;-45
2021/12/21 02:25:02;;;;;;;17.85;8.73;;;;;;;-3.10;100.00;102133.59;7395107;19;20462;-45
2021/12/21 02:27:42;;;;;;;23.48;9.63;;;;;;;-3.01;100.00;102135.63;7400614;19;20163;-43
2021/12/21 02:30:18;;;;;;;20.17;9.07;;;;;;;-2.99;100.00;102138.31;7395463;19;20190;-47
2021/12/21 02:32:48;;;;;;;22.02;9.38;;;;;;;-3.01;100.00;102132.19;7401770;19;20125;-43
2021/12/21 02:35:18;;;;;;;23.50;9.35;;;;;;;-2.97;100.00;102130.94;7395636;19;20190;-43
2021/12/21 02:37:50;;;;;;;25.02;10.07;;;;;;;-3.17;100.00;102126.94;7400525;19;20155;-46
2021/12/21 02:40:19;;;;;;;25.70;11.55;;;;;;;-3.15;100.00;102121.34;7394499;19;20242;-42
2021/12/21 02:42:49;;;;;;;20.00;10.02;;;;;;;-3.15;100.00;102122.97;7401220;19;20247;-46
2021/12/21 02:45:18;;;;;;;20.00;10.45;;;;;;;-3.07;100.00;102123.88;7394935;19;20197;-44
2021/12/21 02:47:48;;;;;;;19.85;10.40;;;;;;;-3.08;100.00;102122.09;7400171;19;20481;-45
2021/12/21 02:50:18;;;;;;;22.90;10.20;;;;;;;-3.05;100.00;102119.91;7393037;19;20182;-48
2021/12/21 02:52:51;;;;;;;19.73;9.98;;;;;;;-2.96;100.00;102112.53;7401028;19;20392;-45
2021/12/21 02:55:21;;;;;;;17.98;10.15;;;;;;;-2.99;100.00;102118.09;7394671;19;20187;-45
2021/12/21 02:57:50;;;;;;;17.83;9.80;;;;;;;-3.08;100.00;102110.34;7400095;19;20159;-43
2021/12/21 03:00:20;;;;;;;35.45;10.68;;;;;;;-3.15;100.00;102111.25;7394322;19;20457;-43
2021/12/21 03:02:49;;;;;;;18.15;9.75;;;;;;;-3.15;100.00;102111.25;7400658;19;20186;-45
2021/12/21 03:05:20;;;;;;;18.35;10.05;;;;;;;-3.02;100.00;102115.25;7394274;19;20238;-51
2021/12/21 03:08:08;;;;;;;21.60;10.93;;;;;;;-2.93;100.00;102102.78;7399642;19;20481;-48
2021/12/21 03:10:45;;;;;;;17.83;10.23;;;;;;;-2.81;100.00;102113.44;7393340;19;20618;-44
2021/12/21 03:15:58;;;;;;;19.30;9.23;;;;;;;-2.88;100.00;102112.72;7393743;19;20254;-43
2021/12/21 03:18:27;;;;;;;19.52;9.10;;;;;;;-3.06;100.00;102115.59;7398698;19;20166;-46
2021/12/21 03:20:57;;;;;;;16.55;9.52;;;;;;;-3.26;100.00;102112.50;7393922;19;20464;-42
2021/12/21 03:23:29;;;;;;;18.52;9.60;;;;;;;-3.28;100.00;102113.06;7400171;19;20134;-48
2021/12/21 03:25:58;;;;;;;15.25;9.68;;;;;;;-3.19;100.00;102118.28;7392996;19;20186;-45
2021/12/21 03:28:28;;;;;;;18.33;9.95;;;;;;;-3.15;100.00;102113.78;7398400;19;20563;-51
2021/12/21 03:30:57;;;;;;;17.48;10.18;;;;;;;-3.10;100.00;102110.88;7393632;19;20444;-42
2021/12/21 03:33:26;;;;;;;18.38;10.90;;;;;;;-3.14;100.00;102113.06;7399934;19;20261;-44
2021/12/21 03:35:56;;;;;;;19.30;10.27;;;;;;;-3.18;100.00;102105.81;7393011;19;20193;-44
2021/12/21 03:38:25;;;;;;;19.52;10.02;;;;;;;-3.18;100.00;102108.34;7398248;19;20559;-44
2021/12/21 03:41:02;;;;;;;17.60;10.45;;;;;;;-3.16;100.00;102104.41;7392718;19;20255;-44
2021/12/21 03:43:32;;;;;;;20.77;10.07;;;;;;;-3.13;100.00;102108.91;7399786;19;20167;-44
2021/12/21 03:46:08;;;;;;;17.90;9.70;;;;;;;-3.18;100.00;102102.41;7392681;19;20201;-43
2021/12/21 03:48:38;;;;;;;21.33;10.13;;;;;;;-3.34;100.00;102104.75;7397708;19;20160;-48
2021/12/21 03:51:07;;;;;;;17.45;10.13;;;;;;;-3.36;100.00;102102.03;7392327;19;20189;-42
2021/12/21 03:53:37;;;;;;;20.88;11.32;;;;;;;-3.37;100.00;102100.22;7399177;19;20126;-42
2021/12/21 03:56:29;;;;;;;20.23;10.30;;;;;;;-3.20;100.00;102102.22;7392394;19;20185;-42
2021/12/21 03:58:59;;;;;;;28.63;11.88;;;;;;;-3.10;100.00;102108.34;7399178;19;20123;-44
2021/12/21 04:01:29;;;;;;;20.42;10.02;;;;;;;-3.18;100.00;102103.31;7391977;19;20182;-46
2021/12/21 04:03:59;;;;;;;18.80;10.07;;;;;;;-3.39;100.00;102095.00;7398938;19;20123;-42
2021/12/21 04:06:28;;;;;;;26.25;10.73;;;;;;;-3.34;100.00;102105.63;7391549;19;20209;-45
2021/12/21 04:08:58;;;;;;;19.23;10.60;;;;;;;-3.10;100.00;102099.16;7398284;19;20123;-43
2021/12/21 04:11:31;;;;;;;20.30;9.68;;;;;;;-3.02;100.00;102100.09;7392443;19;20196;-44
2021/12/21 04:14:01;;;;;;;21.15;9.52;;;;;;;-2.78;100.00;102103.69;7398828;19;20166;-45
2021/12/21 04:16:31;;;;;;;19.23;10.77;;;;;;;-2.92;100.00;102105.47;7394962;19;20253;-54
2021/12/21 04:19:01;;;;;;;16.17;9.68;;;;;;;-2.96;100.00;102103.34;7397818;19;20175;-46
2021/12/21 04:21:30;;;;;;;18.20;10.07;;;;;;;-2.99;100.00;102097.91;7391948;19;20186;-44
2021/12/21 04:24:00;;;;;;;16.42;9.13;;;;;;;-3.06;100.00;102102.97;7398403;19;20536;-46
2021/12/21 04:26:32;;;;;;;14.13;9.13;;;;;;;-3.10;100.00;102103.31;7393860;19;20334;-45
2021/12/21 04:29:01;;;;;;;20.05;9.23;;;;;;;-3.22;100.00;102103.69;7398426;19;20485;-46
2021/12/21 04:31:31;;;;;;;19.67;9.70;;;;;;;-3.31;100.00;102103.47;7392089;19;20216;-43
2021/12/21 04:34:01;;;;;;;16.13;9.68;;;;;;;-3.33;100.00;102104.03;7398312;19;20452;-46
2021/12/21 04:36:30;;;;;;;25.30;9.77;;;;;;;-3.35;100.00;102102.94;7390510;19;20262;-46
2021/12/21 04:39:03;;;;;;;19.42;9.63;;;;;;;-3.21;100.00;102105.47;7398004;19;20183;-46
2021/12/21 04:41:36;;;;;;;15.98;9.07;;;;;;;-3.35;100.00;102100.41;7391427;19;20186;-44
2021/12/21 04:44:19;;;;;;;20.63;10.10;;;;;;;-3.38;100.00;102108.53;7392047;19;20577;-45
2021/12/21 04:46:49;;;;;;;18.92;9.45;;;;;;;-3.28;100.00;102103.84;7395854;19;20169;-42
2021/12/21 04:49:18;;;;;;;23.65;11.20;;;;;;;-3.15;100.00;102106.22;7391896;19;20115;-47
2021/12/21 04:51:48;;;;;;;17.50;10.02;;;;;;;-3.12;100.00;102106.56;7396763;19;20129;-45
2021/12/21 04:54:17;;;;;;;19.08;11.07;;;;;;;-3.09;100.00;102105.13;7397854;19;20138;-45
2021/12/21 04:56:50;;;;;;;25.85;9.95;;;;;;;-3.09;100.00;102106.03;7395369;19;20190;-45
2021/12/21 04:59:20;;;;;;;125.82;48.35;;;;;;;-3.07;100.00;102098.63;7391717;19;20127;-44
2021/12/21 05:01:52;;;;;;;52.90;23.63;;;;;;;-2.92;100.00;102100.41;7397010;19;20123;-43
2021/12/21 05:04:22;;;;;;;19.52;11.90;;;;;;;-3.16;100.00;102096.84;7391227;19;20143;-46
2021/12/21 05:06:54;;;;;;;21.08;11.48;;;;;;;-3.20;100.00;102102.22;7395408;19;20158;-43
2021/12/21 05:09:28;;;;;;;19.40;10.65;;;;;;;-3.08;100.00;102100.25;7390408;19;20120;-46
2021/12/21 05:12:05;;;;;;;18.17;11.80;;;;;;;-3.09;100.00;102095.91;7396175;19;20119;-44
2021/12/21 05:14:34;;;;;;;26.05;11.52;;;;;;;-3.34;100.00;102097.16;7398624;19;20119;-42
2021/12/21 05:17:05;;;;;;;22.23;10.82;;;;;;;-3.45;100.00;102099.31;7403441;19;20428;-43
2021/12/21 05:19:35;;;;;;;20.52;10.60;;;;;;;-3.37;100.00;102100.22;7398933;19;20127;-43
2021/12/21 05:22:05;;;;;;;17.02;9.80;;;;;;;-3.39;100.00;102100.03;7404089;19;20408;-42
2021/12/21 05:24:34;;;;;;;17.95;9.95;;;;;;;-3.45;100.00;102099.31;7398419;19;20504;-44
2021/12/21 05:27:07;;;;;;;20.30;10.45;;;;;;;-3.47;100.00;102095.72;7402873;19;20218;-42
2021/12/21 05:29:37;;;;;;;18.15;10.35;;;;;;;-3.45;100.00;102101.81;7398068;19;20119;-44
2021/12/21 05:32:08;;;;;;;20.88;10.40;;;;;;;-3.36;100.00;102106.16;7403441;19;20139;-45
2021/12/21 05:34:37;;;;;;;16.27;9.80;;;;;;;-3.40;100.00;102108.34;7398189;19;20123;-50
2021/12/21 05:37:07;;;;;;;17.88;9.93;;;;;;;-3.43;100.00;102107.94;7402054;19;20226;-44
2021/12/21 05:39:50;;;;;;;21.95;10.23;;;;;;;-3.45;100.00;102103.44;7398037;19;20178;-45
2021/12/21 05:42:23;;;;;;;20.27;10.45;;;;;;;-3.47;100.00;102098.22;7403618;19;20123;-46
2021/12/21 05:44:52;;;;;;;20.40;10.20;;;;;;;-3.41;100.00;102100.56;7397406;19;20464;-44
2021/12/21 05:47:22;;;;;;;16.95;10.32;;;;;;;-3.31;100.00;102097.53;7401861;19;20210;-45
2021/12/21 05:49:51;;;;;;;17.77;10.00;;;;;;;-3.28;100.00;102097.91;7397287;19;20477;-49
2021/12/21 05:52:21;;;;;;;28.52;9.55;;;;;;;-3.33;100.00;102104.03;7402633;19;20141;-46
2021/12/21 05:54:51;;;;;;;17.67;10.23;;;;;;;-3.37;100.00;102100.22;7396369;19;20238;-45
2021/12/21 05:57:23;;;;;;;13.57;8.75;;;;;;;-3.39;100.00;102099.13;7401376;19;20162;-47
2021/12/21 05:59:52;;;;;;;18.63;8.63;;;;;;;-3.41;100.00;102104.00;7397171;19;21217;-46
2021/12/21 06:02:22;;;;;;;15.65;10.32;;;;;;;-3.24;100.00;102097.53;7402986;19;20123;-44
2021/12/21 06:04:52;;;;;;;21.02;9.70;;;;;;;-3.19;100.00;102104.03;7395887;19;20640;-44
2021/12/21 06:07:21;;;;;;;19.40;11.07;;;;;;;-3.12;100.00;102100.63;7401162;19;20385;-44
2021/12/21 06:09:51;;;;;;;20.10;10.60;;;;;;;-3.25;100.00;102100.78;7395560;19;20252;-48
2021/12/21 06:12:37;;;;;;;15.80;9.93;;;;;;;-3.32;100.00;102105.81;7402397;19;20546;-45
2021/12/21 06:15:24;;;;;;;16.08;10.00;;;;;;;-3.34;100.00;102102.22;7395735;19;20189;-46
2021/12/21 06:26:03;;;;;;;14.98;9.55;;;;;;;-3.83;100.00;102109.13;7394901;19;20246;-45
2021/12/21 06:28:35;;;;;;;19.50;9.90;;;;;;;-3.88;100.00;102114.31;7400197;19;20151;-43
2021/12/21 06:31:06;;;;;;;21.73;10.60;;;;;;;-3.88;100.00;102105.13;7395339;19;20238;-42
2021/12/21 06:33:35;;;;;;;25.48;10.57;;;;;;;-3.94;100.00;102110.31;7400598;19;20119;-43
2021/12/21 06:36:07;;;;;;;18.60;9.45;;;;;;;-3.80;100.00;102112.00;7394462;19;20588;-46
2021/12/21 06:38:37;;;;;;;17.48;9.57;;;;;;;-3.77;100.00;102114.00;7400628;19;20522;-44
2021/12/21 06:41:06;;;;;;;17.77;9.65;;;;;;;-3.82;100.00;102108.41;7394638;19;20186;-42
2021/12/21 06:43:39;;;;;;;19.20;11.13;;;;;;;-3.84;100.00;102103.88;7401462;19;20197;-42
2021/12/21 06:46:15;;;;;;;22.30;11.13;;;;;;;-3.83;100.00;102109.13;7394673;19;20246;-45
2021/12/21 06:51:33;;;;;;;21.30;11.18;;;;;;;-3.88;100.00;102104.22;7394953;19;20205;-49
2021/12/21 06:54:03;;;;;;;54.58;25.58;;;;;;;-3.67;100.00;102106.84;7399793;19;20123;-44
2021/12/21 06:56:32;;;;;;;21.40;10.90;;;;;;;-3.60;100.00;102105.06;7394276;19;20263;-46
2021/12/21 06:59:04;;;;;;;18.38;10.40;;;;;;;-3.57;100.00;102110.44;7400568;19;20123;-46
2021/12/21 07:01:37;;;;;;;21.67;10.75;;;;;;;-3.61;100.00;102105.75;7394377;19;20250;-44
2021/12/21 07:04:08;;;;;;;37.00;18.35;;;;;;;-3.23;100.00;102108.53;7400833;19;20179;-46
2021/12/21 07:06:38;;;;;;;23.42;13.60;;;;;;;-2.88;100.00;102107.66;7393592;19;20186;-45
2021/12/21 07:09:14;;;;;;;41.33;16.75;;;;;;;-3.00;100.00;102112.19;7400157;19;20120;-50
2021/12/21 07:11:46;;;;;;;27.17;13.55;;;;;;;-2.94;100.00;102108.53;7398723;19;20241;-44
2021/12/21 07:19:43;;;;;;;32.88;16.50;;;;;;;-3.16;100.00;102117.03;7394461;19;20194;-48
2021/12/21 07:22:13;;;;;;;20.55;12.82;;;;;;;-2.62;100.00;102117.38;7400397;19;20525;-50
2021/12/21 07:24:42;;;;;;;23.42;11.20;;;;;;;-2.58;100.00;102117.03;7393480;19;20242;-47
2021/12/21 07:27:12;;;;;;;21.60;10.82;;;;;;;-3.09;100.00;102118.66;7398588;19;20522;-44
2021/12/21 07:29:44;;;;;;;18.13;10.77;;;;;;;-3.41;100.00;102123.28;7393766;19;20197;-49
2021/12/21 07:32:13;;;;;;;24.08;11.93;;;;;;;-3.33;100.00;102119.16;7400498;19;20134;-47
2021/12/21 07:34:43;;;;;;;21.52;12.13;;;;;;;-3.43;100.00;102120.56;7391883;19;20210;-48
2021/12/21 07:37:12;;;;;;;19.63;11.73;;;;;;;-3.52;100.00;102124.53;7397812;19;20155;-53
2021/12/21 07:39:42;;;;;;;21.05;10.45;;;;;;;-3.50;100.00;102130.66;7393187;19;20186;-45
2021/12/21 07:42:19;;;;;;;19.85;11.48;;;;;;;-3.51;100.00;102128.84;7399763;19;20136;-45
2021/12/21 07:44:51;;;;;;;18.75;11.30;;;;;;;-3.34;100.00;102125.81;7393463;19;20458;-44
2021/12/21 07:47:21;;;;;;;25.05;11.73;;;;;;;-3.37;100.00;102128.00;7398126;19;20489;-44
2021/12/21 07:49:51;;;;;;;22.58;12.30;;;;;;;-3.39;100.00;102130.34;7392124;19;20183;-43
2021/12/21 07:52:21;;;;;;;18.92;12.05;;;;;;;-3.31;100.00;102127.81;7399943;19;20401;-43
2021/12/21 07:54:51;;;;;;;22.95;11.95;;;;;;;-3.35;100.00;102133.25;7391712;19;20186;-45
2021/12/21 07:57:20;;;;;;;20.75;12.30;;;;;;;-3.25;100.00;102128.56;7397665;19;20164;-47
2021/12/21 07:59:52;;;;;;;20.50;12.52;;;;;;;-3.14;100.00;102129.81;7392851;19;20238;-47
2021/12/21 08:02:24;;;;;;;18.35;12.23;;;;;;;-2.98;100.00;102119.91;7399102;19;20171;-46
2021/12/21 08:04:55;;;;;;;17.85;11.40;;;;;;;-2.97;100.00;102124.25;7392033;19;20207;-49
2021/12/21 08:07:31;;;;;;;17.88;11.90;;;;;;;-3.20;100.00;102127.47;7397512;19;20440;-51
2021/12/21 08:10:17;;;;;;;22.08;11.68;;;;;;;-3.31;100.00;102127.81;7391845;19;20186;-50
2021/12/21 08:12:47;;;;;;;25.75;12.45;;;;;;;-3.34;100.00;102122.41;7398914;19;20174;-43
2021/12/21 08:15:19;;;;;;;22.15;12.50;;;;;;;-3.33;100.00;102125.09;7391305;19;20182;-51
2021/12/21 08:17:51;;;;;;;18.33;11.40;;;;;;;-3.36;100.00;102134.84;7401500;19;20561;-44
2021/12/21 08:20:23;;;;;;;21.42;12.05;;;;;;;-3.47;100.00;102131.03;7392514;19;20193;-49
2021/12/21 08:22:53;;;;;;;22.60;12.38;;;;;;;-3.49;100.00;102131.56;7398564;19;20139;-44
2021/12/21 08:25:25;;;;;;;22.98;12.68;;;;;;;-3.28;100.00;102130.72;7391435;19;20196;-45
2021/12/21 08:27:54;;;;;;;17.73;11.77;;;;;;;-3.31;100.00;102130.34;7397419;19;20155;-45
2021/12/21 08:30:27;;;;;;;17.05;11.10;;;;;;;-3.36;100.00;102128.88;7392577;19;20191;-47
2021/12/21 08:32:58;;;;;;;18.83;12.00;;;;;;;-3.43;100.00;102128.16;7398318;19;20116;-47
2021/12/21 08:35:28;;;;;;;16.90;10.88;;;;;;;-3.43;100.00;102125.63;7390408;19;20242;-44
2021/12/21 08:38:04;;;;;;;19.38;11.45;;;;;;;-3.52;100.00;102124.53;7397225;19;20226;-51
2021/12/21 08:40:38;;;;;;;19.15;11.88;;;;;;;-3.46;100.00;102126.88;7391912;19;20199;-49
2021/12/21 08:43:09;;;;;;;16.92;11.80;;;;;;;-3.49;100.00;102122.34;7398103;19;20119;-49
2021/12/21 08:45:43;;;;;;;21.55;12.77;;;;;;;-3.49;100.00;102107.22;7391218;19;20679;-47
2021/12/21 08:48:14;;;;;;;17.25;12.07;;;;;;;-3.39;100.00;102112.66;7399786;19;20216;-45
2021/12/21 08:50:44;;;;;;;20.83;11.52;;;;;;;-3.22;100.00;102107.81;7398558;19;20186;-45
2021/12/21 08:53:15;;;;;;;20.50;12.30;;;;;;;-3.19;100.00;102111.59;7405107;19;20557;-52
2021/12/21 08:55:46;;;;;;;19.75;13.40;;;;;;;-3.17;100.00;102115.19;7396821;19;20186;-51
2021/12/21 08:58:16;;;;;;;22.02;13.45;;;;;;;-3.04;100.00;102106.56;7403201;19;20215;-46
2021/12/21 09:00:50;;;;;;;25.23;14.23;;;;;;;-2.97;100.00;102095.56;7398449;19;20190;-49
2021/12/21 09:03:20;;;;;;;24.00;13.40;;;;;;;-2.72;100.00;102095.19;7404994;19;20127;-49
2021/12/21 09:05:50;;;;;;;23.98;13.00;;;;;;;-2.80;100.00;102098.44;7398202;19;20260;-52
2021/12/21 09:08:20;;;;;;;22.75;13.27;;;;;;;-2.81;100.00;102103.31;7402481;19;20166;-48
2021/12/21 09:10:51;;;;;;;23.90;13.38;;;;;;;-2.67;100.00;102107.47;7397892;19;20186;-45
2021/12/21 09:13:21;;;;;;;20.77;13.65;;;;;;;-2.50;100.00;102102.75;7404415;19;20123;-44
2021/12/21 09:15:53;;;;;;;47.13;23.20;;;;;;;-2.10;100.00;102101.34;7396735;19;20192;-46
2021/12/21 09:18:22;;;;;;;26.60;15.77;;;;;;;-2.16;100.00;102105.72;7402271;19;20165;-45
2021/12/21 09:20:52;;;;;;;22.75;13.57;;;;;;;-2.28;100.00;102105.22;7397937;19;20508;-43
2021/12/21 09:23:22;;;;;;;20.17;12.80;;;;;;;-2.18;100.00;102107.19;7404186;19;20123;-46
2021/12/21 09:25:52;;;;;;;30.50;14.00;;;;;;;-1.96;100.00;102110.53;7396832;19;20287;-47
2021/12/21 09:28:22;;;;;;;23.08;13.88;;;;;;;-1.96;100.00;102113.06;7401263;19;20169;-50
2021/12/21 09:30:54;;;;;;;21.83;13.88;;;;;;;-1.98;100.00;102121.19;7397116;19;20640;-44
2021/12/21 09:33:23;;;;;;;24.83;15.15;;;;;;;-2.02;100.00;102119.06;7403349;19;20127;-46
2021/12/21 09:35:53;;;;;;;24.45;12.70;;;;;;;-2.04;100.00;102131.53;7394132;19;20182;-44
2021/12/21 09:38:23;;;;;;;22.80;13.20;;;;;;;-1.90;100.00;102126.41;7401037;19;20162;-46
2021/12/21 09:40:54;;;;;;;49.90;18.08;;;;;;;-1.30;100.00;102123.75;7396770;19;20238;-46
2021/12/21 09:43:25;;;;;;;37.95;16.98;;;;;;;-1.50;100.00;102124.97;7403381;19;20119;-45
2021/12/21 09:45:57;;;;;;;33.38;16.35;;;;;;;-1.62;100.00;102123.59;7396196;19;20249;-47
2021/12/21 09:48:28;;;;;;;26.05;13.98;;;;;;;-1.92;100.00;102126.97;7401863;19;20210;-45
2021/12/21 09:50:58;;;;;;;29.38;13.68;;;;;;;-1.97;100.00;102123.00;7396806;19;20194;-45
2021/12/21 09:53:28;;;;;;;24.67;14.55;;;;;;;-2.01;100.00;102116.69;7403182;19;20130;-49
2021/12/21 09:55:58;;;;;;;47.03;18.30;;;;;;;-1.55;100.00;102126.06;7395627;19;20248;-44
2021/12/21 09:58:27;;;;;;;32.78;17.98;;;;;;;-1.42;100.00;102123.31;7400532;19;20230;-43
2021/12/21 10:00:59;;;;;;;23.23;15.35;;;;;;;-1.50;100.00;102129.09;7396454;19;20186;-45
2021/12/21 10:03:29;;;;;;;28.75;15.48;;;;;;;-1.59;100.00;102128.97;7402907;19;20135;-46
2021/12/21 10:06:05;;;;;;;36.85;18.52;;;;;;;-1.27;100.00;102128.25;7395568;19;20186;-45
2021/12/21 10:08:36;;;;;;;36.53;19.10;;;;;;;-1.22;100.00;102135.63;7400257;19;20549;-45
2021/12/21 10:11:07;;;;;;;40.28;19.20;;;;;;;-0.96;100.00;102131.66;7395821;19;20191;-47
2021/12/21 10:13:38;;;;;;;27.50;16.55;;;;;;;-1.19;100.00;102135.06;7407250;19;20129;-45
2021/12/21 10:16:10;;;;;;;29.88;15.93;;;;;;;-1.22;100.00;102138.16;7395222;19;20192;-45
2021/12/21 10:18:41;;;;;;;27.38;16.02;;;;;;;-1.28;100.00;102132.41;7400488;19;20436;-46
2021/12/21 10:21:13;;;;;;;26.60;14.63;;;;;;;-1.35;100.00;102132.47;7395740;19;20460;-49
2021/12/21 10:23:45;;;;;;;23.25;14.52;;;;;;;-1.57;100.00;102134.22;7402272;19;20126;-44
2021/12/21 10:26:16;;;;;;;31.02;15.20;;;;;;;-1.60;100.00;102131.34;7394711;19;20187;-43
2021/12/21 10:28:48;;;;;;;24.30;13.68;;;;;;;-1.45;100.00;102138.13;7400185;19;20436;-44
2021/12/21 10:31:27;;;;;;;24.42;14.05;;;;;;;-1.36;100.00;102138.25;7396244;19;20463;-44
2021/12/21 10:33:59;;;;;;;34.25;15.93;;;;;;;-1.41;100.00;102137.75;7401767;19;20127;-44
2021/12/21 10:36:30;;;;;;;28.38;15.80;;;;;;;-1.44;100.00;102133.97;7392989;19;20461;-45
2021/12/21 10:39:01;;;;;;;24.40;15.18;;;;;;;-1.38;100.00;102140.63;7401951;19;20187;-45
2021/12/21 10:41:39;;;;;;;21.83;14.20;;;;;;;-1.22;100.00;102138.16;7394871;19;20190;-48
2021/12/21 10:44:11;;;;;;;29.90;16.25;;;;;;;-0.81;100.00;102132.47;7401726;19;20122;-45
2021/12/21 10:46:46;;;;;;;31.73;15.63;;;;;;;-0.80;100.00;102138.41;7394193;19;20184;-45
2021/12/21 10:49:34;;;;;;;27.05;15.90;;;;;;;-0.84;100.00;102132.09;7395409;19;20146;-43
2021/12/21 10:52:07;;;;;;;28.98;16.65;;;;;;;-0.52;100.00;102122.03;7401833;19;20134;-44
2021/12/21 10:54:39;;;;;;;26.00;14.30;;;;;;;-0.77;100.00;102124.44;7394944;19;20513;-42
2021/12/21 10:57:11;;;;;;;21.70;13.90;;;;;;;-0.92;100.00;102117.69;7399819;19;20172;-45
2021/12/21 10:59:45;;;;;;;20.55;14.25;;;;;;;-0.68;100.00;102110.25;7394699;19;20194;-45
2021/12/21 11:02:20;;;;;;;26.88;14.48;;;;;;;-0.85;100.00;102117.63;7400831;19;20142;-45
2021/12/21 11:04:53;;;;;;;21.25;12.48;;;;;;;-0.89;100.00;102118.03;7394300;19;20258;-47
2021/12/21 11:07:28;;;;;;;21.67;12.40;;;;;;;-0.88;100.00;102117.31;7398997;19;20165;-45
2021/12/21 11:10:00;;;;;;;17.98;11.45;;;;;;;-0.91;100.00;102109.34;7392041;19;20192;-43
2021/12/21 11:12:30;;;;;;;20.58;12.80;;;;;;;-0.85;100.00;102115.09;7400726;19;20139;-43
2021/12/21 11:15:01;;;;;;;19.27;12.85;;;;;;;-0.86;100.00;102104.03;7393926;19;20192;-47
2021/12/21 11:17:37;;;;;;;23.45;12.88;;;;;;;-0.77;100.00;102108.34;7398607;19;20168;-51
2021/12/21 11:20:08;;;;;;;31.60;12.13;;;;;;;-0.84;100.00;102104.22;7394091;19;20186;-43
2021/12/21 11:22:41;;;;;;;26.52;13.80;;;;;;;-0.73;100.00;102101.22;7400349;19;20135;-47
2021/12/21 11:25:11;;;;;;;19.65;12.52;;;;;;;-0.68;100.00;102104.25;7393740;19;20190;-48
2021/12/21 11:27:44;;;;;;;23.00;12.98;;;;;;;-0.66;100.00;102100.28;7398295;19;20158;-44
2021/12/21 11:30:16;;;;;;;18.15;11.15;;;;;;;-0.63;100.00;102093.00;7393539;19;20266;-48
2021/12/21 11:32:49;;;;;;;18.33;11.73;;;;;;;-0.60;100.00;102094.97;7400139;19;20140;-45
2021/12/21 11:38:07;;;;;;;18.60;11.93;;;;;;;-0.32;100.00;102081.06;7398609;19;20169;-46
2021/12/21 11:40:40;;;;;;;20.52;11.80;;;;;;;-0.21;100.00;102082.22;7393333;19;20498;-44
2021/12/21 11:43:15;;;;;;;18.50;11.75;;;;;;;-0.02;100.00;102079.09;7399708;19;20119;-45
2021/12/21 11:45:50;;;;;;;19.00;11.85;;;;;;;-0.02;100.00;102086.72;7392157;19;20186;-46
2021/12/21 11:48:30;;;;;;;19.13;11.10;;;;;;;0.08;100.00;102086.03;7398350;19;20158;-45
2021/12/21 11:51:08;;;;;;;21.48;11.80;;;;;;;0.29;100.00;102083.97;7393139;19;20194;-50
2021/12/21 11:53:38;;;;;;;21.52;10.75;;;;;;;0.26;100.00;102082.91;7399248;19;20130;-43
2021/12/21 11:56:08;;;;;;;21.10;11.88;;;;;;;0.30;100.00;102084.13;7391071;19;20594;-43
2021/12/21 11:58:41;;;;;;;24.38;11.15;;;;;;;0.27;100.00;102076.19;7397683;19;20160;-45
2021/12/21 12:01:19;;;;;;;17.80;11.45;;;;;;;0.20;100.00;102079.72;7393248;19;20230;-48
2021/12/21 12:04:00;;;;;;;19.92;11.38;;;;;;;0.42;100.00;102079.44;7399459;19;20125;-44
2021/12/21 12:06:33;;;;;;;23.40;11.18;;;;;;;0.51;100.00;102076.94;7392141;19;20632;-44